sensor_id;sensor_type;location;lat;lon;timestamp;P1;durP1;ratioP1;P2;durP2;ratioP2
76059;SDS011;64759;52.220;5.170;2023-04-01T00:00:18;53.65;;;12.77;;
76059;SDS011;64759;52.220;5.170;2023-04-01T00:02:43;44.55;;;13.65;;
76059;SDS011;64759;52.220;5.170;2023-04-01T00:05:09;48.65;;;13.50;;
76059;SDS011;64759;52.220;5.170;2023-04-01T00:07:39;42.28;;;12.70;;
76059;SDS011;64759;52.220;5.170;2023-04-01T00:10:05;33.38;;;10.73;;
76059;SDS011;64759;52.220;5.170;2023-04-01T00:12:32;34.75;;;12.85;;
76059;SDS011;64759;52.220;5.170;2023-04-01T00:14:59;43.88;;;13.25;;
76059;SDS011;64759;52.220;5.170;2023-04-01T00:17:24;35.17;;;13.38;;
76059;SDS011;64759;52.220;5.170;2023-04-01T00:19:50;42.08;;;15.40;;
76059;SDS011;64759;52.220;5.170;2023-04-01T00:22:15;45.08;;;16.90;;
76059;SDS011;64759;52.220;5.170;2023-04-01T00:24:41;48.15;;;16.42;;
76059;SDS011;64759;52.220;5.170;2023-04-01T00:27:07;49.80;;;17.88;;
76059;SDS011;64759;52.220;5.170;2023-04-01T00:29:33;44.70;;;18.23;;
76059;SDS011;64759;52.220;5.170;2023-04-01T00:31:59;54.03;;;19.10;;
76059;SDS011;64759;52.220;5.170;2023-04-01T00:34:25;46.78;;;18.58;;
76059;SDS011;64759;52.220;5.170;2023-04-01T00:36:51;49.13;;;17.52;;
76059;SDS011;64759;52.220;5.170;2023-04-01T00:39:18;42.47;;;17.63;;
76059;SDS011;64759;52.220;5.170;2023-04-01T00:41:44;41.53;;;17.67;;
76059;SDS011;64759;52.220;5.170;2023-04-01T00:46:43;53.45;;;18.52;;
76059;SDS011;64759;52.220;5.170;2023-04-01T00:49:09;48.60;;;16.17;;
76059;SDS011;64759;52.220;5.170;2023-04-01T00:51:35;53.80;;;20.73;;
76059;SDS011;64759;52.220;5.170;2023-04-01T00:54:03;46.78;;;18.40;;
76059;SDS011;64759;52.220;5.170;2023-04-01T00:56:32;48.67;;;19.15;;
76059;SDS011;64759;52.220;5.170;2023-04-01T00:59:06;54.50;;;19.98;;
76059;SDS011;64759;52.220;5.170;2023-04-01T01:01:36;43.15;;;15.80;;
76059;SDS011;64759;52.220;5.170;2023-04-01T01:04:02;36.60;;;13.85;;
76059;SDS011;64759;52.220;5.170;2023-04-01T01:12:25;38.55;;;14.15;;
76059;SDS011;64759;52.220;5.170;2023-04-01T01:15:02;33.88;;;14.45;;
76059;SDS011;64759;52.220;5.170;2023-04-01T01:20:19;33.83;;;14.05;;
76059;SDS011;64759;52.220;5.170;2023-04-01T01:23:08;27.42;;;12.18;;
76059;SDS011;64759;52.220;5.170;2023-04-01T01:25:59;25.63;;;10.70;;
76059;SDS011;64759;52.220;5.170;2023-04-01T01:28:51;22.13;;;9.63;;
76059;SDS011;64759;52.220;5.170;2023-04-01T01:31:37;24.63;;;10.38;;
76059;SDS011;64759;52.220;5.170;2023-04-01T01:36:43;24.73;;;10.85;;
76059;SDS011;64759;52.220;5.170;2023-04-01T01:39:12;20.60;;;9.63;;
76059;SDS011;64759;52.220;5.170;2023-04-01T01:41:39;23.60;;;9.55;;
76059;SDS011;64759;52.220;5.170;2023-04-01T01:44:08;21.55;;;8.45;;
76059;SDS011;64759;52.220;5.170;2023-04-01T01:46:37;21.50;;;8.40;;
76059;SDS011;64759;52.220;5.170;2023-04-01T01:49:06;16.92;;;8.43;;
76059;SDS011;64759;52.220;5.170;2023-04-01T01:51:34;19.55;;;8.05;;
76059;SDS011;64759;52.220;5.170;2023-04-01T01:54:01;18.90;;;7.28;;
76059;SDS011;64759;52.220;5.170;2023-04-01T01:56:27;18.88;;;7.68;;
76059;SDS011;64759;52.220;5.170;2023-04-01T01:58:59;19.27;;;7.15;;
76059;SDS011;64759;52.220;5.170;2023-04-01T02:01:29;19.70;;;8.38;;
76059;SDS011;64759;52.220;5.170;2023-04-01T02:04:05;15.18;;;6.97;;
76059;SDS011;64759;52.220;5.170;2023-04-01T02:06:32;17.98;;;7.10;;
76059;SDS011;64759;52.220;5.170;2023-04-01T02:09:03;13.32;;;7.07;;
76059;SDS011;64759;52.220;5.170;2023-04-01T02:14:21;17.23;;;8.60;;
76059;SDS011;64759;52.220;5.170;2023-04-01T02:16:53;18.15;;;8.32;;
76059;SDS011;64759;52.220;5.170;2023-04-01T02:19:27;18.80;;;8.95;;
76059;SDS011;64759;52.220;5.170;2023-04-01T02:21:59;23.95;;;9.65;;
76059;SDS011;64759;52.220;5.170;2023-04-01T02:24:27;23.33;;;9.85;;
76059;SDS011;64759;52.220;5.170;2023-04-01T02:26:56;24.10;;;9.23;;
76059;SDS011;64759;52.220;5.170;2023-04-01T02:29:22;26.73;;;10.43;;
76059;SDS011;64759;52.220;5.170;2023-04-01T02:31:50;23.00;;;10.68;;
76059;SDS011;64759;52.220;5.170;2023-04-01T02:34:17;16.38;;;9.10;;
76059;SDS011;64759;52.220;5.170;2023-04-01T02:36:44;23.30;;;11.10;;
76059;SDS011;64759;52.220;5.170;2023-04-01T02:39:10;25.05;;;12.15;;
76059;SDS011;64759;52.220;5.170;2023-04-01T02:41:43;23.52;;;12.35;;
76059;SDS011;64759;52.220;5.170;2023-04-01T02:44:10;21.13;;;12.18;;
76059;SDS011;64759;52.220;5.170;2023-04-01T02:46:37;27.25;;;13.82;;
76059;SDS011;64759;52.220;5.170;2023-04-01T02:49:03;29.75;;;14.80;;
76059;SDS011;64759;52.220;5.170;2023-04-01T02:51:32;35.42;;;17.45;;
76059;SDS011;64759;52.220;5.170;2023-04-01T02:53:59;45.95;;;19.67;;
76059;SDS011;64759;52.220;5.170;2023-04-01T02:56:24;45.47;;;22.55;;
76059;SDS011;64759;52.220;5.170;2023-04-01T02:58:51;45.50;;;22.25;;
76059;SDS011;64759;52.220;5.170;2023-04-01T03:01:17;45.03;;;21.65;;
76059;SDS011;64759;52.220;5.170;2023-04-01T03:03:42;43.33;;;21.98;;
76059;SDS011;64759;52.220;5.170;2023-04-01T03:06:10;55.15;;;23.88;;
76059;SDS011;64759;52.220;5.170;2023-04-01T03:08:37;51.00;;;23.45;;
76059;SDS011;64759;52.220;5.170;2023-04-01T03:11:03;43.90;;;24.15;;
76059;SDS011;64759;52.220;5.170;2023-04-01T03:13:33;50.25;;;23.88;;
76059;SDS011;64759;52.220;5.170;2023-04-01T03:15:58;51.33;;;23.90;;
76059;SDS011;64759;52.220;5.170;2023-04-01T03:18:24;45.45;;;23.98;;
76059;SDS011;64759;52.220;5.170;2023-04-01T03:20:49;57.60;;;23.70;;
76059;SDS011;64759;52.220;5.170;2023-04-01T03:23:15;55.97;;;24.65;;
76059;SDS011;64759;52.220;5.170;2023-04-01T03:25:43;49.80;;;22.52;;
76059;SDS011;64759;52.220;5.170;2023-04-01T03:28:08;46.70;;;21.30;;
76059;SDS011;64759;52.220;5.170;2023-04-01T03:30:34;47.47;;;21.33;;
76059;SDS011;64759;52.220;5.170;2023-04-01T03:32:59;38.42;;;19.48;;
76059;SDS011;64759;52.220;5.170;2023-04-01T03:35:26;39.35;;;18.95;;
76059;SDS011;64759;52.220;5.170;2023-04-01T03:37:52;40.60;;;18.55;;
76059;SDS011;64759;52.220;5.170;2023-04-01T03:40:19;36.72;;;18.63;;
76059;SDS011;64759;52.220;5.170;2023-04-01T03:42:46;40.25;;;18.23;;
76059;SDS011;64759;52.220;5.170;2023-04-01T03:45:11;35.45;;;18.15;;
76059;SDS011;64759;52.220;5.170;2023-04-01T03:47:38;44.22;;;21.05;;
76059;SDS011;64759;52.220;5.170;2023-04-01T03:50:04;44.92;;;20.60;;
76059;SDS011;64759;52.220;5.170;2023-04-01T03:52:31;38.42;;;18.33;;
76059;SDS011;64759;52.220;5.170;2023-04-01T03:54:57;40.72;;;17.70;;
76059;SDS011;64759;52.220;5.170;2023-04-01T03:57:22;32.42;;;15.70;;
76059;SDS011;64759;52.220;5.170;2023-04-01T03:59:48;33.08;;;15.10;;
76059;SDS011;64759;52.220;5.170;2023-04-01T04:02:14;22.42;;;12.25;;
76059;SDS011;64759;52.220;5.170;2023-04-01T04:04:40;21.05;;;11.43;;
76059;SDS011;64759;52.220;5.170;2023-04-01T04:07:07;21.95;;;11.77;;
76059;SDS011;64759;52.220;5.170;2023-04-01T04:09:52;14.02;;;8.65;;
76059;SDS011;64759;52.220;5.170;2023-04-01T04:12:17;12.30;;;7.78;;
76059;SDS011;64759;52.220;5.170;2023-04-01T04:14:43;12.48;;;7.70;;
76059;SDS011;64759;52.220;5.170;2023-04-01T04:17:10;11.73;;;7.75;;
76059;SDS011;64759;52.220;5.170;2023-04-01T04:19:41;15.98;;;7.93;;
76059;SDS011;64759;52.220;5.170;2023-04-01T04:22:08;10.75;;;6.68;;
76059;SDS011;64759;52.220;5.170;2023-04-01T04:24:34;13.57;;;7.20;;
76059;SDS011;64759;52.220;5.170;2023-04-01T04:27:06;12.82;;;7.90;;
76059;SDS011;64759;52.220;5.170;2023-04-01T04:29:31;12.98;;;7.93;;
76059;SDS011;64759;52.220;5.170;2023-04-01T04:31:59;15.57;;;10.15;;
76059;SDS011;64759;52.220;5.170;2023-04-01T04:34:25;17.33;;;9.57;;
76059;SDS011;64759;52.220;5.170;2023-04-01T04:36:51;12.98;;;9.07;;
76059;SDS011;64759;52.220;5.170;2023-04-01T04:39:17;15.82;;;9.75;;
76059;SDS011;64759;52.220;5.170;2023-04-01T04:41:43;14.30;;;9.73;;
76059;SDS011;64759;52.220;5.170;2023-04-01T04:44:10;15.13;;;9.88;;
76059;SDS011;64759;52.220;5.170;2023-04-01T04:46:36;17.05;;;10.07;;
76059;SDS011;64759;52.220;5.170;2023-04-01T04:49:10;13.60;;;9.65;;
76059;SDS011;64759;52.220;5.170;2023-04-01T04:51:37;16.95;;;10.68;;
76059;SDS011;64759;52.220;5.170;2023-04-01T04:54:05;14.75;;;9.95;;
76059;SDS011;64759;52.220;5.170;2023-04-01T04:56:44;16.48;;;11.48;;
76059;SDS011;64759;52.220;5.170;2023-04-01T04:59:09;14.98;;;10.65;;
76059;SDS011;64759;52.220;5.170;2023-04-01T05:01:48;18.38;;;11.55;;
76059;SDS011;64759;52.220;5.170;2023-04-01T05:04:13;15.10;;;11.23;;
76059;SDS011;64759;52.220;5.170;2023-04-01T05:06:39;17.40;;;12.45;;
76059;SDS011;64759;52.220;5.170;2023-04-01T05:09:04;19.80;;;11.75;;
76059;SDS011;64759;52.220;5.170;2023-04-01T05:11:30;15.80;;;12.07;;
76059;SDS011;64759;52.220;5.170;2023-04-01T05:13:55;21.25;;;11.93;;
76059;SDS011;64759;52.220;5.170;2023-04-01T05:16:21;19.80;;;11.98;;
76059;SDS011;64759;52.220;5.170;2023-04-01T05:18:46;17.77;;;12.65;;
76059;SDS011;64759;52.220;5.170;2023-04-01T05:21:14;18.10;;;11.77;;
76059;SDS011;64759;52.220;5.170;2023-04-01T05:23:42;19.23;;;12.82;;
76059;SDS011;64759;52.220;5.170;2023-04-01T05:26:10;16.15;;;11.35;;
76059;SDS011;64759;52.220;5.170;2023-04-01T05:28:37;16.17;;;11.35;;
76059;SDS011;64759;52.220;5.170;2023-04-01T05:31:03;15.75;;;11.55;;
76059;SDS011;64759;52.220;5.170;2023-04-01T05:33:34;15.80;;;11.55;;
76059;SDS011;64759;52.220;5.170;2023-04-01T05:36:09;16.05;;;11.60;;
76059;SDS011;64759;52.220;5.170;2023-04-01T05:38:37;18.90;;;13.48;;
76059;SDS011;64759;52.220;5.170;2023-04-01T05:41:05;18.88;;;12.57;;
76059;SDS011;64759;52.220;5.170;2023-04-01T05:43:36;18.05;;;12.65;;
76059;SDS011;64759;52.220;5.170;2023-04-01T05:46:12;17.10;;;11.18;;
76059;SDS011;64759;52.220;5.170;2023-04-01T05:48:48;18.05;;;11.70;;
76059;SDS011;64759;52.220;5.170;2023-04-01T05:51:16;19.85;;;12.00;;
76059;SDS011;64759;52.220;5.170;2023-04-01T05:53:41;19.30;;;12.10;;
76059;SDS011;64759;52.220;5.170;2023-04-01T05:56:07;20.65;;;12.10;;
76059;SDS011;64759;52.220;5.170;2023-04-01T05:58:38;16.83;;;11.93;;
76059;SDS011;64759;52.220;5.170;2023-04-01T06:01:07;18.52;;;12.13;;
76059;SDS011;64759;52.220;5.170;2023-04-01T06:03:35;18.73;;;12.57;;
76059;SDS011;64759;52.220;5.170;2023-04-01T06:06:01;16.58;;;10.60;;
76059;SDS011;64759;52.220;5.170;2023-04-01T06:08:26;19.08;;;11.60;;
76059;SDS011;64759;52.220;5.170;2023-04-01T06:10:57;16.77;;;10.38;;
76059;SDS011;64759;52.220;5.170;2023-04-01T06:13:58;16.83;;;11.00;;
76059;SDS011;64759;52.220;5.170;2023-04-01T06:16:39;14.05;;;10.15;;
76059;SDS011;64759;52.220;5.170;2023-04-01T06:30:42;13.35;;;8.05;;
76059;SDS011;64759;52.220;5.170;2023-04-01T06:41:23;16.15;;;9.52;;
76059;SDS011;64759;52.220;5.170;2023-04-01T06:44:14;13.07;;;8.30;;
76059;SDS011;64759;52.220;5.170;2023-04-01T06:47:18;12.50;;;7.85;;
76059;SDS011;64759;52.220;5.170;2023-04-01T06:50:19;13.52;;;8.43;;
76059;SDS011;64759;52.220;5.170;2023-04-01T06:53:13;14.35;;;8.93;;
76059;SDS011;64759;52.220;5.170;2023-04-01T06:55:53;23.40;;;16.02;;
76059;SDS011;64759;52.220;5.170;2023-04-01T06:58:40;20.33;;;11.05;;
76059;SDS011;64759;52.220;5.170;2023-04-01T07:01:12;18.67;;;11.73;;
76059;SDS011;64759;52.220;5.170;2023-04-01T07:04:00;19.63;;;12.00;;
76059;SDS011;64759;52.220;5.170;2023-04-01T07:06:50;21.63;;;12.40;;
76059;SDS011;64759;52.220;5.170;2023-04-01T07:09:20;18.83;;;11.02;;
76059;SDS011;64759;52.220;5.170;2023-04-01T07:12:28;18.75;;;11.35;;
76059;SDS011;64759;52.220;5.170;2023-04-01T07:15:20;16.75;;;10.63;;
76059;SDS011;64759;52.220;5.170;2023-04-01T07:17:55;19.20;;;11.55;;
76059;SDS011;64759;52.220;5.170;2023-04-01T07:20:33;17.25;;;10.98;;
76059;SDS011;64759;52.220;5.170;2023-04-01T07:23:04;22.92;;;12.00;;
76059;SDS011;64759;52.220;5.170;2023-04-01T07:26:15;22.40;;;12.30;;
76059;SDS011;64759;52.220;5.170;2023-04-01T07:28:52;19.42;;;12.57;;
76059;SDS011;64759;52.220;5.170;2023-04-01T07:37:15;23.00;;;13.38;;
76059;SDS011;64759;52.220;5.170;2023-04-01T07:40:04;25.40;;;13.48;;
76059;SDS011;64759;52.220;5.170;2023-04-01T07:46:03;24.75;;;14.25;;
76059;SDS011;64759;52.220;5.170;2023-04-01T07:51:27;29.25;;;14.57;;
76059;SDS011;64759;52.220;5.170;2023-04-01T07:56:57;27.52;;;14.18;;
76059;SDS011;64759;52.220;5.170;2023-04-01T08:00:10;25.80;;;14.50;;
76059;SDS011;64759;52.220;5.170;2023-04-01T08:06:06;26.90;;;14.30;;
76059;SDS011;64759;52.220;5.170;2023-04-01T08:08:59;25.85;;;13.63;;
76059;SDS011;64759;52.220;5.170;2023-04-01T08:12:18;22.08;;;13.93;;
76059;SDS011;64759;52.220;5.170;2023-04-01T08:23:38;22.40;;;14.02;;
76059;SDS011;64759;52.220;5.170;2023-04-01T08:28:43;23.13;;;14.00;;
76059;SDS011;64759;52.220;5.170;2023-04-01T08:31:34;24.50;;;14.60;;
76059;SDS011;64759;52.220;5.170;2023-04-01T08:34:08;20.88;;;13.55;;
76059;SDS011;64759;52.220;5.170;2023-04-01T08:36:43;24.92;;;14.57;;
76059;SDS011;64759;52.220;5.170;2023-04-01T08:39:16;22.42;;;12.98;;
76059;SDS011;64759;52.220;5.170;2023-04-01T08:47:46;22.73;;;12.88;;
76059;SDS011;64759;52.220;5.170;2023-04-01T08:53:37;14.75;;;9.93;;
76059;SDS011;64759;52.220;5.170;2023-04-01T08:56:20;17.90;;;10.65;;
76059;SDS011;64759;52.220;5.170;2023-04-01T09:07:47;16.45;;;9.88;;
76059;SDS011;64759;52.220;5.170;2023-04-01T09:16:13;12.30;;;8.02;;
76059;SDS011;64759;52.220;5.170;2023-04-01T09:19:06;13.57;;;8.38;;
76059;SDS011;64759;52.220;5.170;2023-04-01T09:27:29;14.65;;;9.60;;
76059;SDS011;64759;52.220;5.170;2023-04-01T09:33:21;15.57;;;9.95;;
76059;SDS011;64759;52.220;5.170;2023-04-01T09:38:57;15.93;;;9.40;;
76059;SDS011;64759;52.220;5.170;2023-04-01T09:41:30;12.85;;;7.50;;
76059;SDS011;64759;52.220;5.170;2023-04-01T09:44:28;8.40;;;6.88;;
76059;SDS011;64759;52.220;5.170;2023-04-01T09:58:58;11.63;;;8.23;;
76059;SDS011;64759;52.220;5.170;2023-04-01T10:02:14;11.68;;;9.23;;
76059;SDS011;64759;52.220;5.170;2023-04-01T10:05:04;13.25;;;9.80;;
76059;SDS011;64759;52.220;5.170;2023-04-01T10:08:01;15.77;;;9.80;;
76059;SDS011;64759;52.220;5.170;2023-04-01T10:13:37;17.10;;;11.90;;
76059;SDS011;64759;52.220;5.170;2023-04-01T10:22:41;18.70;;;12.25;;
76059;SDS011;64759;52.220;5.170;2023-04-01T10:25:18;17.88;;;12.68;;
76059;SDS011;64759;52.220;5.170;2023-04-01T10:34:20;15.90;;;11.77;;
76059;SDS011;64759;52.220;5.170;2023-04-01T10:37:15;15.85;;;10.52;;
76059;SDS011;64759;52.220;5.170;2023-04-01T10:40:08;21.02;;;11.45;;
76059;SDS011;64759;52.220;5.170;2023-04-01T10:45:58;12.13;;;9.52;;
76059;SDS011;64759;52.220;5.170;2023-04-01T10:48:51;10.93;;;7.95;;
76059;SDS011;64759;52.220;5.170;2023-04-01T10:54:14;11.43;;;9.27;;
76059;SDS011;64759;52.220;5.170;2023-04-01T11:00:25;11.50;;;9.23;;
76059;SDS011;64759;52.220;5.170;2023-04-01T11:08:51;9.05;;;7.38;;
76059;SDS011;64759;52.220;5.170;2023-04-01T11:12:03;11.90;;;9.13;;
76059;SDS011;64759;52.220;5.170;2023-04-01T11:29:31;10.70;;;8.68;;
76059;SDS011;64759;52.220;5.170;2023-04-01T11:38:02;9.27;;;7.97;;
76059;SDS011;64759;52.220;5.170;2023-04-01T11:52:46;14.57;;;12.88;;
76059;SDS011;64759;52.220;5.170;2023-04-01T11:55:28;13.43;;;12.05;;
76059;SDS011;64759;52.220;5.170;2023-04-01T12:17:07;14.85;;;11.88;;
76059;SDS011;64759;52.220;5.170;2023-04-01T12:19:44;15.80;;;11.75;;
76059;SDS011;64759;52.220;5.170;2023-04-01T12:22:23;15.23;;;11.63;;
76059;SDS011;64759;52.220;5.170;2023-04-01T12:27:41;17.90;;;12.90;;
76059;SDS011;64759;52.220;5.170;2023-04-01T12:30:27;18.35;;;13.15;;
76059;SDS011;64759;52.220;5.170;2023-04-01T12:33:15;14.35;;;12.68;;
76059;SDS011;64759;52.220;5.170;2023-04-01T12:39:08;20.33;;;15.60;;
76059;SDS011;64759;52.220;5.170;2023-04-01T12:41:53;21.77;;;14.55;;
76059;SDS011;64759;52.220;5.170;2023-04-01T12:44:39;22.75;;;13.95;;
76059;SDS011;64759;52.220;5.170;2023-04-01T12:47:24;17.85;;;13.65;;
76059;SDS011;64759;52.220;5.170;2023-04-01T12:49:56;14.45;;;11.40;;
76059;SDS011;64759;52.220;5.170;2023-04-01T12:52:42;16.83;;;11.90;;
76059;SDS011;64759;52.220;5.170;2023-04-01T13:10:05;11.00;;;9.13;;
76059;SDS011;64759;52.220;5.170;2023-04-01T13:13:05;12.80;;;9.85;;
76059;SDS011;64759;52.220;5.170;2023-04-01T13:16:02;10.55;;;7.40;;
76059;SDS011;64759;52.220;5.170;2023-04-01T13:30:01;7.63;;;6.20;;
76059;SDS011;64759;52.220;5.170;2023-04-01T13:32:34;8.00;;;7.03;;
76059;SDS011;64759;52.220;5.170;2023-04-01T13:35:15;9.02;;;6.90;;
76059;SDS011;64759;52.220;5.170;2023-04-01T13:43:14;8.23;;;7.43;;
76059;SDS011;64759;52.220;5.170;2023-04-01T13:48:45;9.38;;;8.18;;
76059;SDS011;64759;52.220;5.170;2023-04-01T13:51:53;10.48;;;9.38;;
76059;SDS011;64759;52.220;5.170;2023-04-01T13:57:26;9.25;;;8.35;;
76059;SDS011;64759;52.220;5.170;2023-04-01T14:06:26;9.05;;;7.82;;
76059;SDS011;64759;52.220;5.170;2023-04-01T14:08:59;15.10;;;9.32;;
76059;SDS011;64759;52.220;5.170;2023-04-01T14:11:45;10.27;;;9.05;;
76059;SDS011;64759;52.220;5.170;2023-04-01T14:19:50;10.30;;;9.20;;
76059;SDS011;64759;52.220;5.170;2023-04-01T14:42:41;8.48;;;7.68;;
76059;SDS011;64759;52.220;5.170;2023-04-01T14:48:17;11.15;;;8.43;;
76059;SDS011;64759;52.220;5.170;2023-04-01T14:51:41;10.48;;;8.75;;
76059;SDS011;64759;52.220;5.170;2023-04-01T14:59:01;10.23;;;8.65;;
76059;SDS011;64759;52.220;5.170;2023-04-01T15:01:39;9.13;;;8.23;;
76059;SDS011;64759;52.220;5.170;2023-04-01T15:07:00;9.93;;;7.95;;
76059;SDS011;64759;52.220;5.170;2023-04-01T15:12:23;8.48;;;7.63;;
76059;SDS011;64759;52.220;5.170;2023-04-01T15:15:11;8.35;;;7.47;;
76059;SDS011;64759;52.220;5.170;2023-04-01T15:18:09;8.05;;;7.13;;
76059;SDS011;64759;52.220;5.170;2023-04-01T15:29:00;8.43;;;7.63;;
76059;SDS011;64759;52.220;5.170;2023-04-01T15:31:40;8.75;;;7.85;;
76059;SDS011;64759;52.220;5.170;2023-04-01T15:34:45;9.95;;;7.65;;
76059;SDS011;64759;52.220;5.170;2023-04-01T15:37:28;8.70;;;7.75;;
76059;SDS011;64759;52.220;5.170;2023-04-01T15:40:31;8.60;;;7.70;;
76059;SDS011;64759;52.220;5.170;2023-04-01T15:45:56;10.55;;;7.38;;
76059;SDS011;64759;52.220;5.170;2023-04-01T15:56:54;9.15;;;7.45;;
76059;SDS011;64759;52.220;5.170;2023-04-01T16:11:15;7.85;;;6.28;;
76059;SDS011;64759;52.220;5.170;2023-04-01T16:19:49;8.55;;;7.57;;
76059;SDS011;64759;52.220;5.170;2023-04-01T16:25:17;6.30;;;5.00;;
76059;SDS011;64759;52.220;5.170;2023-04-01T16:33:58;3.53;;;2.95;;
76059;SDS011;64759;52.220;5.170;2023-04-01T16:41:37;4.03;;;3.60;;
76059;SDS011;64759;52.220;5.170;2023-04-01T16:44:24;4.95;;;3.95;;
76059;SDS011;64759;52.220;5.170;2023-04-01T16:46:53;4.30;;;3.90;;
76059;SDS011;64759;52.220;5.170;2023-04-01T16:49:25;5.95;;;4.38;;
76059;SDS011;64759;52.220;5.170;2023-04-01T16:52:04;4.18;;;3.75;;
76059;SDS011;64759;52.220;5.170;2023-04-01T16:57:25;4.72;;;4.32;;
76059;SDS011;64759;52.220;5.170;2023-04-01T17:02:31;5.03;;;4.53;;
76059;SDS011;64759;52.220;5.170;2023-04-01T17:05:06;4.53;;;4.13;;
76059;SDS011;64759;52.220;5.170;2023-04-01T17:18:35;3.60;;;3.30;;
76059;SDS011;64759;52.220;5.170;2023-04-01T17:21:07;3.17;;;2.83;;
76059;SDS011;64759;52.220;5.170;2023-04-01T17:29:15;4.47;;;3.13;;
76059;SDS011;64759;52.220;5.170;2023-04-01T17:42:33;3.33;;;3.03;;
76059;SDS011;64759;52.220;5.170;2023-04-01T17:50:53;3.08;;;2.85;;
76059;SDS011;64759;52.220;5.170;2023-04-01T17:53:27;4.93;;;3.60;;
76059;SDS011;64759;52.220;5.170;2023-04-01T17:56:03;3.38;;;3.08;;
76059;SDS011;64759;52.220;5.170;2023-04-01T18:04:14;4.05;;;3.65;;
76059;SDS011;64759;52.220;5.170;2023-04-01T18:09:46;3.67;;;3.30;;
76059;SDS011;64759;52.220;5.170;2023-04-01T18:15:04;4.00;;;3.63;;
76059;SDS011;64759;52.220;5.170;2023-04-01T18:20:51;3.60;;;3.30;;
76059;SDS011;64759;52.220;5.170;2023-04-01T18:26:44;3.53;;;3.22;;
76059;SDS011;64759;52.220;5.170;2023-04-01T18:31:43;3.80;;;3.50;;
76059;SDS011;64759;52.220;5.170;2023-04-01T18:37:19;3.40;;;3.10;;
76059;SDS011;64759;52.220;5.170;2023-04-01T18:39:56;3.72;;;3.42;;
76059;SDS011;64759;52.220;5.170;2023-04-01T18:42:43;8.50;;;4.15;;
76059;SDS011;64759;52.220;5.170;2023-04-01T18:45:27;4.90;;;4.40;;
76059;SDS011;64759;52.220;5.170;2023-04-01T18:50:56;5.57;;;3.92;;
76059;SDS011;64759;52.220;5.170;2023-04-01T18:53:41;4.63;;;4.18;;
76059;SDS011;64759;52.220;5.170;2023-04-01T18:56:09;5.15;;;4.70;;
76059;SDS011;64759;52.220;5.170;2023-04-01T18:59:12;8.07;;;6.45;;
76059;SDS011;64759;52.220;5.170;2023-04-01T19:01:39;8.57;;;6.30;;
76059;SDS011;64759;52.220;5.170;2023-04-01T19:04:30;8.38;;;5.72;;
76059;SDS011;64759;52.220;5.170;2023-04-01T19:07:19;7.15;;;6.45;;
76059;SDS011;64759;52.220;5.170;2023-04-01T19:09:50;7.72;;;6.97;;
76059;SDS011;64759;52.220;5.170;2023-04-01T19:17:56;7.85;;;7.05;;
76059;SDS011;64759;52.220;5.170;2023-04-01T19:20:41;8.05;;;6.82;;
76059;SDS011;64759;52.220;5.170;2023-04-01T19:26:02;9.75;;;7.10;;
76059;SDS011;64759;52.220;5.170;2023-04-01T19:28:34;8.45;;;6.95;;
76059;SDS011;64759;52.220;5.170;2023-04-01T19:31:38;7.32;;;6.63;;
76059;SDS011;64759;52.220;5.170;2023-04-01T19:34:39;10.45;;;7.57;;
76059;SDS011;64759;52.220;5.170;2023-04-01T19:37:19;7.20;;;6.53;;
76059;SDS011;64759;52.220;5.170;2023-04-01T19:42:46;9.23;;;8.20;;
76059;SDS011;64759;52.220;5.170;2023-04-01T19:50:57;11.43;;;7.38;;
76059;SDS011;64759;52.220;5.170;2023-04-01T19:53:31;8.88;;;7.55;;
76059;SDS011;64759;52.220;5.170;2023-04-01T19:56:02;8.40;;;7.05;;
76059;SDS011;64759;52.220;5.170;2023-04-01T19:58:58;9.35;;;7.32;;
76059;SDS011;64759;52.220;5.170;2023-04-01T20:01:56;8.10;;;7.05;;
76059;SDS011;64759;52.220;5.170;2023-04-01T20:04:30;7.90;;;7.15;;
76059;SDS011;64759;52.220;5.170;2023-04-01T20:07:08;8.98;;;7.18;;
76059;SDS011;64759;52.220;5.170;2023-04-01T20:10:00;8.48;;;7.47;;
76059;SDS011;64759;52.220;5.170;2023-04-01T20:15:36;9.30;;;6.95;;
76059;SDS011;64759;52.220;5.170;2023-04-01T20:18:20;7.93;;;7.10;;
76059;SDS011;64759;52.220;5.170;2023-04-01T20:20:54;11.90;;;7.05;;
76059;SDS011;64759;52.220;5.170;2023-04-01T20:23:29;8.55;;;6.93;;
76059;SDS011;64759;52.220;5.170;2023-04-01T20:26:07;10.55;;;7.50;;
76059;SDS011;64759;52.220;5.170;2023-04-01T20:31:10;8.05;;;6.82;;
76059;SDS011;64759;52.220;5.170;2023-04-01T20:49:44;10.13;;;6.97;;
76059;SDS011;64759;52.220;5.170;2023-04-01T20:52:32;9.52;;;7.60;;
76059;SDS011;64759;52.220;5.170;2023-04-01T20:57:57;8.98;;;7.15;;
76059;SDS011;64759;52.220;5.170;2023-04-01T21:00:51;8.05;;;6.60;;
76059;SDS011;64759;52.220;5.170;2023-04-01T21:04:15;11.52;;;8.45;;
76059;SDS011;64759;52.220;5.170;2023-04-01T21:06:41;8.60;;;7.25;;
76059;SDS011;64759;52.220;5.170;2023-04-01T21:12:18;10.30;;;6.97;;
76059;SDS011;64759;52.220;5.170;2023-04-01T21:37:54;9.43;;;7.55;;
76059;SDS011;64759;52.220;5.170;2023-04-01T21:43:26;10.23;;;7.90;;
76059;SDS011;64759;52.220;5.170;2023-04-01T21:58:09;10.20;;;7.25;;
76059;SDS011;64759;52.220;5.170;2023-04-01T22:00:38;11.48;;;8.63;;
76059;SDS011;64759;52.220;5.170;2023-04-01T22:08:39;13.02;;;8.32;;
76059;SDS011;64759;52.220;5.170;2023-04-01T22:11:44;15.75;;;8.38;;
76059;SDS011;64759;52.220;5.170;2023-04-01T22:14:24;15.02;;;8.90;;
76059;SDS011;64759;52.220;5.170;2023-04-01T22:17:08;12.00;;;7.68;;
76059;SDS011;64759;52.220;5.170;2023-04-01T22:20:03;10.43;;;8.40;;
76059;SDS011;64759;52.220;5.170;2023-04-01T22:23:01;14.95;;;8.70;;
76059;SDS011;64759;52.220;5.170;2023-04-01T22:25:25;12.60;;;8.98;;
76059;SDS011;64759;52.220;5.170;2023-04-01T22:31:03;12.52;;;9.77;;
76059;SDS011;64759;52.220;5.170;2023-04-01T22:33:38;11.15;;;8.75;;
76059;SDS011;64759;52.220;5.170;2023-04-01T22:36:51;12.68;;;8.75;;
76059;SDS011;64759;52.220;5.170;2023-04-01T22:44:50;12.80;;;9.25;;
76059;SDS011;64759;52.220;5.170;2023-04-01T22:47:30;12.93;;;9.20;;
76059;SDS011;64759;52.220;5.170;2023-04-01T22:50:04;13.32;;;8.70;;
76059;SDS011;64759;52.220;5.170;2023-04-01T22:52:44;13.50;;;8.88;;
76059;SDS011;64759;52.220;5.170;2023-04-01T22:55:22;18.45;;;9.75;;
76059;SDS011;64759;52.220;5.170;2023-04-01T22:57:52;13.45;;;8.77;;
76059;SDS011;64759;52.220;5.170;2023-04-01T23:00:43;19.63;;;9.82;;
76059;SDS011;64759;52.220;5.170;2023-04-01T23:03:21;17.38;;;9.50;;
76059;SDS011;64759;52.220;5.170;2023-04-01T23:05:53;13.45;;;8.98;;
76059;SDS011;64759;52.220;5.170;2023-04-01T23:08:33;12.60;;;9.23;;
76059;SDS011;64759;52.220;5.170;2023-04-01T23:13:49;14.07;;;9.27;;
76059;SDS011;64759;52.220;5.170;2023-04-01T23:16:24;11.75;;;9.00;;
76059;SDS011;64759;52.220;5.170;2023-04-01T23:19:17;14.65;;;9.85;;
76059;SDS011;64759;52.220;5.170;2023-04-01T23:21:52;12.95;;;9.77;;
76059;SDS011;64759;52.220;5.170;2023-04-01T23:24:41;16.65;;;10.38;;
76059;SDS011;64759;52.220;5.170;2023-04-01T23:27:28;17.02;;;10.05;;
76059;SDS011;64759;52.220;5.170;2023-04-01T23:30:02;19.95;;;11.30;;
76059;SDS011;64759;52.220;5.170;2023-04-01T23:32:28;16.33;;;9.63;;
76059;SDS011;64759;52.220;5.170;2023-04-01T23:34:58;18.13;;;10.98;;
76059;SDS011;64759;52.220;5.170;2023-04-01T23:37:25;16.13;;;10.57;;
76059;SDS011;64759;52.220;5.170;2023-04-01T23:39:52;15.52;;;9.95;;
76059;SDS011;64759;52.220;5.170;2023-04-01T23:44:56;19.48;;;11.27;;